Time;durP1;ratioP1;P1;durP2;ratioP2;P2;SDS_P1;SDS_P2;PMS_P1;PMS_P2;Temp;Humidity;BMP_temperature;BMP_pressure;BME280_temperature;BME280_humidity;BME280_pressure;Samples;Min_cycle;Max_cycle;Signal;HPM_P1;HPM_P2
2022/03/21 00:01:51;;;;;;;5.43;2.00;;;11.30;99.90;;;;;;5071405;28;20497;-84
2022/03/21 00:04:17;;;;;;;3.78;1.83;;;11.30;99.90;;;;;;5089929;28;20058;-85
2022/03/21 00:06:43;;;;;;;5.75;1.90;;;11.40;99.90;;;;;;5090095;28;20040;-84
2022/03/21 00:09:08;;;;;;;3.17;2.03;;;11.40;99.90;;;;;;5084648;28;20042;-85
2022/03/21 00:11:34;;;;;;;5.07;2.15;;;11.40;99.90;;;;;;5083591;28;20145;-85
2022/03/21 00:14:00;;;;;;;3.50;1.67;;;11.40;99.90;;;;;;5087984;28;20516;-85
2022/03/21 00:16:26;;;;;;;4.10;1.58;;;11.40;99.90;;;;;;5089460;28;20051;-85
2022/03/21 00:18:52;;;;;;;6.28;2.20;;;11.50;99.90;;;;;;5089915;28;20012;-85
2022/03/21 00:21:19;;;;;;;6.00;2.00;;;11.40;99.90;;;;;;5084903;28;20028;-85
2022/03/21 00:23:45;;;;;;;5.32;2.22;;;11.40;99.90;;;;;;5083322;28;20127;-85
2022/03/21 00:26:11;;;;;;;8.55;2.55;;;11.40;99.90;;;;;;5086510;28;20020;-85
2022/03/21 00:28:36;;;;;;;5.47;2.53;;;11.30;99.90;;;;;;5085013;28;20034;-85
2022/03/21 00:31:03;;;;;;;4.13;2.45;;;11.40;99.90;;;;;;5087703;28;20035;-85
2022/03/21 00:33:28;;;;;;;5.78;2.13;;;11.40;99.90;;;;;;5081616;28;20020;-84
2022/03/21 00:35:54;;;;;;;7.05;2.80;;;11.30;99.90;;;;;;5089898;28;20039;-84
2022/03/21 00:38:21;;;;;;;10.35;3.17;;;11.30;99.90;;;;;;5089871;28;20739;-82
2022/03/21 00:40:47;;;;;;;6.22;2.55;;;11.30;99.90;;;;;;5091161;28;20024;-82
2022/03/21 00:43:24;;;;;;;5.97;2.75;;;11.30;99.90;;;;;;5089921;28;20024;-82
2022/03/21 00:45:52;;;;;;;4.47;2.17;;;11.30;99.90;;;;;;5079767;28;20565;-82
2022/03/21 00:48:18;;;;;;;8.20;2.67;;;11.30;99.90;;;;;;5089676;28;20047;-83
2022/03/21 00:50:44;;;;;;;7.68;2.50;;;11.30;99.90;;;;;;5081923;28;20020;-83
2022/03/21 00:53:10;;;;;;;5.78;2.70;;;11.30;99.90;;;;;;5089617;28;20044;-83
2022/03/21 00:55:36;;;;;;;10.25;2.13;;;11.20;99.90;;;;;;5090757;28;20494;-83
2022/03/21 00:58:02;;;;;;;10.60;2.83;;;11.20;99.90;;;;;;5087583;28;20051;-82
2022/03/21 01:00:31;;;;;;;4.20;2.08;;;11.20;99.90;;;;;;5088362;28;20028;-82
2022/03/21 01:02:59;;;;;;;9.35;2.50;;;11.20;99.90;;;;;;5084361;28;20401;-82
2022/03/21 01:05:25;;;;;;;8.88;2.90;;;11.20;99.90;;;;;;5071757;28;20050;-83
2022/03/21 01:07:51;;;;;;;6.53;1.95;;;11.20;99.90;;;;;;5070580;28;20024;-82
2022/03/21 01:10:19;;;;;;;6.45;2.55;;;11.20;99.90;;;;;;5089053;28;20030;-82
2022/03/21 01:12:45;;;;;;;6.25;2.00;;;11.10;99.90;;;;;;5089329;28;20073;-83
2022/03/21 01:15:14;;;;;;;5.28;1.88;;;11.10;99.90;;;;;;5080718;28;20059;-83
2022/03/21 01:17:42;;;;;;;4.22;2.25;;;11.10;99.90;;;;;;5089390;28;20027;-83
2022/03/21 01:20:09;;;;;;;6.30;2.70;;;11.10;99.90;;;;;;5087825;28;20016;-83
2022/03/21 01:22:34;;;;;;;8.90;3.30;;;11.00;99.90;;;;;;5083126;28;20077;-83
2022/03/21 01:25:01;;;;;;;6.82;2.40;;;11.10;99.90;;;;;;5088997;28;20016;-83
2022/03/21 01:27:27;;;;;;;4.20;1.95;;;11.00;99.90;;;;;;5080925;28;20032;-83
2022/03/21 01:29:53;;;;;;;6.05;2.00;;;11.00;99.90;;;;;;5089462;28;20024;-84
2022/03/21 01:32:19;;;;;;;6.53;2.58;;;11.00;99.90;;;;;;5093500;28;20122;-84
2022/03/21 01:34:45;;;;;;;7.72;2.42;;;11.00;99.90;;;;;;5094524;28;20111;-83
2022/03/21 01:37:11;;;;;;;4.97;2.00;;;11.00;99.90;;;;;;5092790;28;20159;-83
2022/03/21 01:39:37;;;;;;;5.30;2.60;;;10.90;99.90;;;;;;5083498;28;20549;-83
2022/03/21 01:42:03;;;;;;;7.63;3.67;;;10.90;99.90;;;;;;5091996;28;20069;-82
2022/03/21 01:44:28;;;;;;;7.45;3.03;;;10.90;99.90;;;;;;5091885;28;20676;-83
2022/03/21 01:46:54;;;;;;;10.85;3.05;;;11.00;99.90;;;;;;5092543;28;20063;-83
2022/03/21 01:49:21;;;;;;;8.60;2.83;;;10.90;99.90;;;;;;5079786;28;20031;-83
2022/03/21 01:51:46;;;;;;;9.27;2.42;;;11.00;99.90;;;;;;5092248;28;20051;-83
2022/03/21 01:56:57;;;;;;;8.55;2.90;;;10.90;99.90;;;;;;5092586;28;20034;-83
2022/03/21 01:59:25;;;;;;;8.50;2.88;;;10.90;99.90;;;;;;5093119;28;20455;-83
2022/03/21 02:01:51;;;;;;;6.75;2.60;;;10.90;99.90;;;;;;5092684;28;20111;-87
2022/03/21 02:04:17;;;;;;;7.85;2.92;;;10.90;99.90;;;;;;5084138;28;20104;-83
2022/03/21 02:06:43;;;;;;;7.13;2.78;;;10.90;99.90;;;;;;5091645;28;20103;-82
2022/03/21 02:09:09;;;;;;;9.48;2.70;;;10.90;99.90;;;;;;5083962;28;20033;-82
2022/03/21 02:11:37;;;;;;;7.50;2.95;;;10.80;99.90;;;;;;5091260;28;20115;-81
2022/03/21 02:14:05;;;;;;;13.82;3.35;;;10.80;99.90;;;;;;5091513;28;20466;-82
2022/03/21 02:16:32;;;;;;;7.75;2.75;;;10.80;99.90;;;;;;5092905;28;20032;-81
2022/03/21 02:19:13;;;;;;;9.20;3.20;;;10.80;99.90;;;;;;5092285;28;20055;-81
2022/03/21 02:22:14;;;;;;;8.88;3.95;;;10.80;99.90;;;;;;5082388;28;20027;-81
2022/03/21 02:24:59;;;;;;;7.90;2.33;;;10.80;99.90;;;;;;5029744;28;20040;-82
2022/03/21 02:27:28;;;;;;;6.38;2.83;;;10.80;99.90;;;;;;5030243;28;20112;-81
2022/03/21 02:29:56;;;;;;;8.32;2.72;;;10.70;99.90;;;;;;5029520;28;20041;-82
2022/03/21 02:32:22;;;;;;;8.38;3.00;;;10.70;99.90;;;;;;5030244;28;20072;-82
2022/03/21 02:34:49;;;;;;;8.90;3.60;;;10.70;99.90;;;;;;5031014;28;20124;-82
2022/03/21 02:37:18;;;;;;;14.45;3.10;;;10.70;99.90;;;;;;5002197;28;20077;-81
2022/03/21 02:39:45;;;;;;;6.95;3.22;;;10.80;99.90;;;;;;5000718;28;20034;-82
2022/03/21 02:42:12;;;;;;;7.22;2.42;;;10.70;99.90;;;;;;5020474;28;20095;-81
2022/03/21 02:44:39;;;;;;;6.75;3.20;;;10.70;99.90;;;;;;5012977;28;20030;-82
2022/03/21 02:47:06;;;;;;;11.77;3.22;;;10.70;99.90;;;;;;5029720;28;20120;-81
2022/03/21 02:49:32;;;;;;;6.90;2.60;;;10.70;99.90;;;;;;5026098;28;20059;-81
2022/03/21 02:51:59;;;;;;;4.97;2.30;;;10.70;99.90;;;;;;5012779;28;20045;-84
2022/03/21 02:54:28;;;;;;;8.27;2.75;;;10.70;99.90;;;;;;5029720;28;20102;-84
2022/03/21 02:56:56;;;;;;;4.25;2.40;;;10.70;99.90;;;;;;5029482;28;20156;-84
2022/03/21 02:59:22;;;;;;;6.38;3.05;;;10.70;99.90;;;;;;5063826;28;20044;-84
2022/03/21 03:01:53;;;;;;;8.32;3.00;;;10.70;99.90;;;;;;5091354;28;20032;-84
2022/03/21 03:04:28;;;;;;;9.30;2.92;;;10.60;99.90;;;;;;5083322;28;20031;-84
2022/03/21 03:06:54;;;;;;;8.65;2.88;;;10.60;99.90;;;;;;5091007;28;20032;-84
2022/03/21 03:09:20;;;;;;;6.13;2.13;;;10.50;99.90;;;;;;5091385;28;20393;-83
2022/03/21 03:11:47;;;;;;;8.45;2.83;;;10.50;99.90;;;;;;5091248;28;20020;-84
2022/03/21 03:14:13;;;;;;;7.15;3.00;;;10.60;99.90;;;;;;5089004;28;20024;-81
2022/03/21 03:16:38;;;;;;;6.80;2.20;;;10.60;99.90;;;;;;5086535;28;20077;-82
2022/03/21 03:19:04;;;;;;;9.20;3.08;;;10.60;99.90;;;;;;5091280;28;20020;-82
2022/03/21 03:21:39;;;;;;;9.98;3.78;;;10.60;99.90;;;;;;5091156;28;20020;-82
2022/03/21 03:24:05;;;;;;;10.43;2.67;;;10.60;99.90;;;;;;5089870;28;20032;-84
2022/03/21 03:26:31;;;;;;;5.72;3.17;;;10.60;99.90;;;;;;5090557;28;20123;-84
2022/03/21 03:28:57;;;;;;;7.65;2.80;;;10.60;99.90;;;;;;5091530;28;20028;-84
2022/03/21 03:31:23;;;;;;;7.30;2.72;;;10.50;99.90;;;;;;5090458;28;20450;-84
2022/03/21 03:33:48;;;;;;;11.50;2.53;;;10.50;99.90;;;;;;5075101;28;20032;-84
2022/03/21 03:36:16;;;;;;;6.38;2.63;;;10.40;99.90;;;;;;5081624;28;20444;-84
2022/03/21 03:38:43;;;;;;;4.93;2.05;;;10.40;99.90;;;;;;5083390;28;20095;-84
2022/03/21 03:41:10;;;;;;;5.88;2.30;;;10.40;99.90;;;;;;5087730;28;20024;-83
2022/03/21 03:43:38;;;;;;;5.47;2.33;;;10.40;99.90;;;;;;5092006;28;20051;-84
2022/03/21 03:46:04;;;;;;;6.60;2.53;;;10.50;99.90;;;;;;5080866;28;20028;-83
2022/03/21 03:48:30;;;;;;;8.98;3.00;;;10.50;99.90;;;;;;5076029;28;20074;-84
2022/03/21 03:50:56;;;;;;;7.75;3.10;;;10.50;99.90;;;;;;5083825;28;20077;-83
2022/03/21 03:53:22;;;;;;;8.05;2.78;;;10.50;99.90;;;;;;5088995;28;20055;-83
2022/03/21 03:55:48;;;;;;;7.63;3.15;;;10.50;99.90;;;;;;5091669;28;20028;-83
2022/03/21 03:58:14;;;;;;;5.65;2.47;;;10.40;99.90;;;;;;5090308;28;20062;-83
2022/03/21 04:00:40;;;;;;;7.90;2.45;;;10.40;99.90;;;;;;5089106;28;20477;-83
2022/03/21 04:05:50;;;;;;;10.40;3.03;;;10.40;99.90;;;;;;5089908;28;20031;-82
2022/03/21 04:08:19;;;;;;;5.55;2.55;;;10.40;99.90;;;;;;5087250;28;20455;-83
2022/03/21 04:10:44;;;;;;;7.45;2.83;;;10.50;99.90;;;;;;5086550;28;20038;-83
2022/03/21 04:13:10;;;;;;;10.77;3.72;;;10.40;99.90;;;;;;5090145;28;20448;-82
2022/03/21 04:15:36;;;;;;;10.32;3.33;;;10.40;99.90;;;;;;5089986;28;20077;-82
2022/03/21 04:18:07;;;;;;;11.48;3.25;;;10.40;99.90;;;;;;5090185;28;20032;-83
2022/03/21 04:20:33;;;;;;;12.05;2.95;;;10.40;99.90;;;;;;5083580;28;20024;-83
2022/03/21 04:23:00;;;;;;;12.63;3.55;;;10.50;99.90;;;;;;5087285;28;20501;-82
2022/03/21 04:25:26;;;;;;;5.07;3.17;;;10.50;99.90;;;;;;5083417;28;20095;-82
2022/03/21 04:27:52;;;;;;;8.43;2.97;;;10.50;99.90;;;;;;5081474;28;20513;-82
2022/03/21 04:30:18;;;;;;;11.77;3.20;;;10.50;99.90;;;;;;5089857;28;20107;-82
2022/03/21 04:32:44;;;;;;;9.18;3.40;;;10.50;99.90;;;;;;5090260;28;20466;-82
2022/03/21 04:35:11;;;;;;;11.10;3.03;;;10.30;99.90;;;;;;5090052;28;20032;-82
2022/03/21 04:37:37;;;;;;;6.88;3.05;;;10.50;99.90;;;;;;5071411;28;20119;-82
2022/03/21 04:40:05;;;;;;;11.00;3.60;;;10.50;99.90;;;;;;5087598;28;20016;-83
2022/03/21 04:42:31;;;;;;;9.77;3.63;;;10.50;99.90;;;;;;5089671;28;20047;-84
2022/03/21 04:44:56;;;;;;;9.80;3.42;;;10.50;99.90;;;;;;5079863;28;20044;-83
2022/03/21 04:47:22;;;;;;;5.50;2.80;;;10.50;99.90;;;;;;5090238;28;20025;-85
2022/03/21 04:49:49;;;;;;;8.60;3.13;;;10.50;99.90;;;;;;5082499;28;20033;-84
2022/03/21 04:52:15;;;;;;;11.52;3.60;;;10.50;99.90;;;;;;5085910;28;20177;-84
2022/03/21 04:54:41;;;;;;;8.68;3.22;;;10.50;99.90;;;;;;5089077;28;20028;-85
2022/03/21 04:57:08;;;;;;;6.82;3.08;;;10.40;99.90;;;;;;5081180;28;20031;-85
2022/03/21 04:59:35;;;;;;;12.05;3.20;;;10.40;99.90;;;;;;5088230;28;20043;-84
2022/03/21 05:02:01;;;;;;;11.90;3.53;;;10.40;99.90;;;;;;5087791;28;20020;-84
2022/03/21 05:04:27;;;;;;;6.07;2.80;;;10.50;99.90;;;;;;5083260;28;20020;-84
2022/03/21 05:06:54;;;;;;;6.53;3.13;;;10.40;99.90;;;;;;5093280;28;20034;-84
2022/03/21 05:09:20;;;;;;;8.82;3.65;;;10.50;99.90;;;;;;5086455;28;20131;-84
2022/03/21 05:11:46;;;;;;;9.05;3.40;;;10.40;99.90;;;;;;5080914;28;20055;-84
2022/03/21 05:14:11;;;;;;;7.55;2.92;;;10.40;99.90;;;;;;5093738;28;20055;-84
2022/03/21 05:16:38;;;;;;;8.45;3.22;;;10.40;99.90;;;;;;5093415;28;20115;-83
2022/03/21 05:19:04;;;;;;;7.63;2.65;;;10.40;99.90;;;;;;5093484;28;20577;-83
2022/03/21 05:21:30;;;;;;;7.07;2.58;;;10.50;99.90;;;;;;5088248;28;20020;-84
2022/03/21 05:32:08;;;;;;;5.88;2.78;;;10.40;99.90;;;;;;5075231;28;20043;-83
2022/03/21 05:37:18;;;;;;;5.35;2.53;;;10.40;99.90;;;;;;5084884;28;20057;-83
2022/03/21 05:42:33;;;;;;;9.43;3.05;;;10.40;99.90;;;;;;5064045;28;20552;-83
2022/03/21 05:44:59;;;;;;;4.50;2.40;;;10.30;99.90;;;;;;5053492;28;20040;-83
2022/03/21 05:47:24;;;;;;;4.32;2.72;;;10.40;99.90;;;;;;5053648;28;20028;-83
2022/03/21 05:49:51;;;;;;;4.28;2.65;;;10.30;99.90;;;;;;5055725;28;20102;-83
2022/03/21 05:52:17;;;;;;;6.78;3.13;;;10.40;99.90;;;;;;5067832;28;20063;-83
2022/03/21 05:54:43;;;;;;;6.75;2.88;;;10.40;99.90;;;;;;5070584;28;20241;-83
2022/03/21 05:57:08;;;;;;;6.20;3.00;;;10.40;99.90;;;;;;5070186;28;20665;-83
2022/03/21 06:02:18;;;;;;;9.32;3.90;;;10.50;99.90;;;;;;5070083;28;20028;-82
2022/03/21 06:04:45;;;;;;;5.90;2.78;;;10.40;99.90;;;;;;5054553;28;20028;-83
2022/03/21 06:07:11;;;;;;;8.18;2.80;;;10.40;99.90;;;;;;5069951;28;20658;-83
2022/03/21 06:09:37;;;;;;;9.15;3.05;;;10.50;99.90;;;;;;5065725;28;20134;-83
2022/03/21 06:12:03;;;;;;;12.88;3.15;;;10.40;99.90;;;;;;5070012;28;20501;-83
2022/03/21 06:14:29;;;;;;;7.68;2.95;;;10.60;99.90;;;;;;5069962;28;20063;-82
2022/03/21 06:16:55;;;;;;;8.95;2.95;;;10.60;99.90;;;;;;5070328;28;20090;-83
2022/03/21 06:19:21;;;;;;;6.10;2.45;;;10.60;99.90;;;;;;5071649;28;20041;-83
2022/03/21 06:21:47;;;;;;;7.88;2.72;;;10.60;99.90;;;;;;5087811;28;20069;-83
2022/03/21 06:24:13;;;;;;;9.25;3.22;;;10.60;99.90;;;;;;5092192;28;20036;-82
2022/03/21 06:26:42;;;;;;;10.10;3.03;;;10.60;99.90;;;;;;5085022;28;20409;-83
2022/03/21 06:29:08;;;;;;;6.03;2.90;;;10.70;99.90;;;;;;5090589;28;20024;-83
2022/03/21 06:31:34;;;;;;;5.28;2.97;;;10.70;99.90;;;;;;5093343;28;20293;-83
2022/03/21 06:34:00;;;;;;;6.05;2.88;;;10.80;99.90;;;;;;5090993;28;20067;-82
2022/03/21 06:36:25;;;;;;;5.53;2.70;;;10.80;99.90;;;;;;5091101;28;20465;-83
2022/03/21 06:38:51;;;;;;;8.00;3.15;;;10.90;99.90;;;;;;5086909;28;20077;-85
2022/03/21 06:41:17;;;;;;;9.43;3.28;;;10.90;99.90;;;;;;5092140;28;20032;-85
2022/03/21 06:43:43;;;;;;;7.43;3.08;;;10.90;99.90;;;;;;5078491;28;20021;-84
2022/03/21 06:46:09;;;;;;;5.75;2.55;;;11.00;99.90;;;;;;5080823;28;20394;-85
2022/03/21 06:48:35;;;;;;;4.65;2.63;;;11.00;99.90;;;;;;5090826;28;20499;-85
2022/03/21 06:51:01;;;;;;;6.22;3.28;;;11.10;99.90;;;;;;5080551;28;20043;-85
2022/03/21 06:53:26;;;;;;;8.23;3.08;;;11.20;99.90;;;;;;5089981;28;20433;-85
2022/03/21 06:55:52;;;;;;;9.32;3.20;;;11.40;99.90;;;;;;5092740;28;20028;-85
2022/03/21 06:58:18;;;;;;;6.38;2.90;;;11.60;99.90;;;;;;5091519;28;20454;-85
2022/03/21 07:00:46;;;;;;;10.05;2.92;;;11.70;99.90;;;;;;5090189;28;20524;-85
2022/03/21 07:03:16;;;;;;;4.63;2.45;;;11.80;99.90;;;;;;5082945;28;20108;-84
2022/03/21 07:05:42;;;;;;;6.40;2.75;;;12.00;99.90;;;;;;5083900;28;20164;-85
2022/03/21 07:08:08;;;;;;;3.92;2.80;;;12.20;99.90;;;;;;5089758;28;20508;-85
2022/03/21 07:10:34;;;;;;;6.40;3.28;;;12.30;99.90;;;;;;5092730;28;20035;-84
2022/03/21 07:13:04;;;;;;;6.97;3.50;;;12.60;99.90;;;;;;5091000;28;20028;-86
2022/03/21 07:15:31;;;;;;;4.15;2.60;;;13.00;99.90;;;;;;5091285;28;20028;-86
2022/03/21 07:17:57;;;;;;;5.40;2.75;;;13.60;99.90;;;;;;5091318;28;20138;-84
2022/03/21 07:20:25;;;;;;;4.65;2.65;;;14.90;99.90;;;;;;5075215;28;20087;-83
2022/03/21 07:22:55;;;;;;;5.88;2.78;;;15.10;99.90;;;;;;5092676;28;20048;-83
2022/03/21 07:25:21;;;;;;;6.55;2.60;;;15.80;99.90;;;;;;5071395;28;20025;-84
2022/03/21 07:27:48;;;;;;;5.72;2.50;;;16.40;99.90;;;;;;5084453;28;20110;-84
2022/03/21 07:30:14;;;;;;;4.63;2.10;;;17.50;99.90;;;;;;5089720;28;20404;-85
2022/03/21 07:32:41;;;;;;;3.75;2.10;;;17.80;98.90;;;;;;5089904;28;20027;-87
2022/03/21 07:35:07;;;;;;;4.65;2.38;;;18.10;98.70;;;;;;5091078;28;20032;-85
2022/03/21 07:37:46;;;;;;;6.43;2.20;;;17.80;98.40;;;;;;5091645;28;20031;-85
2022/03/21 07:40:12;;;;;;;6.20;2.28;;;17.40;99.20;;;;;;5082249;28;20024;-85
2022/03/21 07:42:39;;;;;;;4.78;2.03;;;17.90;97.60;;;;;;5081183;28;20024;-85
2022/03/21 07:47:52;;;;;;;6.80;2.10;;;18.20;97.90;;;;;;5087315;28;20043;-86
2022/03/21 07:50:19;;;;;;;3.70;1.95;;;18.80;96.80;;;;;;5081733;28;20035;-83
2022/03/21 07:52:48;;;;;;;2.58;1.90;;;18.20;97.30;;;;;;5090569;28;20137;-83
2022/03/21 07:55:14;;;;;;;2.22;1.35;;;17.70;97.10;;;;;;5090597;28;20031;-82
2022/03/21 07:57:39;;;;;;;2.50;1.90;;;17.70;97.60;;;;;;5081931;28;20389;-82
2022/03/21 08:00:09;;;;;;;3.45;1.67;;;18.30;96.90;;;;;;5090685;28;20430;-82
2022/03/21 08:02:35;;;;;;;2.85;1.70;;;18.20;96.60;;;;;;5083837;28;20141;-86
2022/03/21 08:05:01;;;;;;;3.33;1.60;;;19.00;96.20;;;;;;5071638;28;20070;-87
2022/03/21 08:07:27;;;;;;;2.35;1.52;;;19.00;96.30;;;;;;5090010;28;20020;-88
2022/03/21 08:09:53;;;;;;;2.75;1.73;;;19.20;96.10;;;;;;5090471;28;20060;-88
2022/03/21 08:12:19;;;;;;;4.35;1.65;;;19.10;95.30;;;;;;5090125;28;20024;-88
2022/03/21 08:14:45;;;;;;;2.55;1.48;;;18.10;96.80;;;;;;5090522;28;20043;-87
2022/03/21 08:17:11;;;;;;;2.38;1.67;;;18.00;97.30;;;;;;5090224;28;20027;-84
2022/03/21 08:19:36;;;;;;;2.10;1.42;;;17.80;97.40;;;;;;5091474;28;20035;-83
2022/03/21 08:22:07;;;;;;;4.38;2.17;;;17.00;97.60;;;;;;5090249;28;20499;-87
2022/03/21 08:24:35;;;;;;;3.90;1.83;;;17.00;98.10;;;;;;5087884;28;20031;-87
2022/03/21 08:27:04;;;;;;;2.72;1.60;;;17.20;97.60;;;;;;5080309;28;20037;-87
2022/03/21 08:29:30;;;;;;;2.00;1.80;;;16.80;98.30;;;;;;5088674;28;20060;-85
2022/03/21 08:31:56;;;;;;;2.63;1.50;;;16.80;99.30;;;;;;5088975;28;20438;-85
2022/03/21 08:34:22;;;;;;;3.15;2.03;;;16.50;99.00;;;;;;5082559;28;20112;-87
2022/03/21 08:36:48;;;;;;;4.38;2.08;;;16.10;99.50;;;;;;5088418;28;20031;-83
2022/03/21 08:39:14;;;;;;;4.22;1.70;;;16.30;99.20;;;;;;5080011;28;20078;-87
2022/03/21 08:41:40;;;;;;;2.30;1.55;;;16.00;99.90;;;;;;5082549;28;20543;-87
2022/03/21 08:44:06;;;;;;;6.25;1.90;;;16.20;99.70;;;;;;5086250;28;20020;-84
2022/03/21 08:46:32;;;;;;;3.88;1.80;;;16.20;99.40;;;;;;5090580;28;20017;-84
2022/03/21 08:51:43;;;;;;;4.03;1.80;;;16.40;99.30;;;;;;5084500;28;20047;-84
2022/03/21 08:54:09;;;;;;;7.38;1.80;;;16.20;99.40;;;;;;5089900;28;20024;-90
2022/03/21 08:56:35;;;;;;;5.38;2.05;;;16.50;99.50;;;;;;5088881;28;20021;-86
2022/03/21 08:59:01;;;;;;;2.85;2.10;;;16.20;98.90;;;;;;5089971;28;20062;-87
2022/03/21 09:01:27;;;;;;;3.60;1.85;;;16.30;99.10;;;;;;5083242;28;20058;-91
2022/03/21 09:03:54;;;;;;;2.83;1.48;;;16.60;99.10;;;;;;5088441;28;20512;-90
2022/03/21 09:06:20;;;;;;;3.70;1.60;;;16.80;99.10;;;;;;5089594;28;20103;-86
2022/03/21 09:08:50;;;;;;;3.22;1.90;;;16.80;98.10;;;;;;5081657;28;20021;-86
2022/03/21 09:11:19;;;;;;;2.67;1.98;;;17.10;99.30;;;;;;5088671;28;20493;-86
2022/03/21 09:13:46;;;;;;;6.15;1.90;;;17.80;98.10;;;;;;5090669;28;20020;-86
2022/03/21 09:16:13;;;;;;;5.90;1.75;;;16.70;98.30;;;;;;5088321;28;20498;-87
2022/03/21 09:18:40;;;;;;;4.65;1.65;;;16.40;98.70;;;;;;5088134;28;20509;-87
2022/03/21 09:21:06;;;;;;;3.88;1.70;;;16.40;99.00;;;;;;5089046;28;20084;-90
2022/03/21 09:23:33;;;;;;;2.75;1.38;;;15.90;99.80;;;;;;5088524;28;20154;-86
2022/03/21 09:26:00;;;;;;;2.80;1.27;;;15.90;99.30;;;;;;5088190;28;20161;-89
2022/03/21 09:28:30;;;;;;;1.35;1.02;;;16.20;99.80;;;;;;5070256;28;20036;-88
2022/03/21 09:30:56;;;;;;;2.30;1.10;;;16.80;99.10;;;;;;5085917;28;20161;-88
2022/03/21 09:33:22;;;;;;;2.72;1.23;;;16.20;99.10;;;;;;5089294;28;20522;-83
2022/03/21 09:35:48;;;;;;;1.52;1.00;;;16.00;99.50;;;;;;5089515;28;20035;-86
2022/03/21 09:38:17;;;;;;;2.72;1.38;;;16.30;99.40;;;;;;5089110;28;20020;-89
2022/03/21 09:40:44;;;;;;;1.63;1.00;;;16.20;99.50;;;;;;5090586;28;20146;-85
2022/03/21 09:43:11;;;;;;;1.67;1.27;;;15.90;99.00;;;;;;5089394;28;20024;-83
2022/03/21 09:45:37;;;;;;;1.48;1.00;;;15.90;99.00;;;;;;5084410;28;20028;-83
2022/03/21 09:48:16;;;;;;;2.17;1.30;;;16.50;99.20;;;;;;5089296;28;20059;-85
2022/03/21 09:50:50;;;;;;;1.40;1.08;;;16.30;98.80;;;;;;5079945;28;20097;-83
2022/03/21 09:53:16;;;;;;;1.20;1.10;;;16.00;99.30;;;;;;5090371;28;20118;-86
2022/03/21 09:55:44;;;;;;;2.45;1.30;;;16.60;98.80;;;;;;5088644;28;20024;-84
2022/03/21 09:58:10;;;;;;;1.45;1.17;;;16.40;98.80;;;;;;5091391;28;20060;-83
2022/03/21 10:00:41;;;;;;;3.88;2.28;;;16.70;97.90;;;;;;5092250;28;20054;-83
2022/03/21 10:03:07;;;;;;;2.17;1.50;;;16.30;98.50;;;;;;5092724;28;20018;-83
2022/03/21 10:05:37;;;;;;;4.60;1.80;;;16.80;97.80;;;;;;5092880;28;20020;-83
2022/03/21 10:08:09;;;;;;;6.13;1.77;;;17.00;98.40;;;;;;5091319;28;20028;-83
2022/03/21 10:10:35;;;;;;;3.75;1.75;;;16.90;98.40;;;;;;5093883;28;20020;-86
2022/03/21 10:13:02;;;;;;;3.38;2.08;;;16.90;98.00;;;;;;5092604;28;20100;-83
2022/03/21 10:15:29;;;;;;;3.00;1.90;;;16.40;98.40;;;;;;5092271;28;20020;-82
2022/03/21 10:18:08;;;;;;;3.60;2.10;;;16.50;98.70;;;;;;5092367;28;20020;-84
2022/03/21 10:20:35;;;;;;;4.35;2.00;;;16.00;98.70;;;;;;5077786;28;20031;-83
2022/03/21 10:23:17;;;;;;;2.67;2.28;;;16.00;99.30;;;;;;5092364;28;20027;-83
2022/03/21 10:25:44;;;;;;;8.20;2.33;;;16.40;99.10;;;;;;5087771;28;20032;-84
2022/03/21 10:28:10;;;;;;;4.40;2.40;;;16.00;98.70;;;;;;5090905;28;20081;-85
2022/03/21 10:30:44;;;;;;;2.08;1.85;;;16.30;98.40;;;;;;5092017;28;20024;-84
2022/03/21 10:33:10;;;;;;;6.80;2.63;;;16.60;98.90;;;;;;5086827;28;20024;-82
2022/03/21 10:35:46;;;;;;;3.17;1.95;;;16.40;98.70;;;;;;5092270;28;20451;-87
2022/03/21 10:38:12;;;;;;;6.10;2.78;;;16.30;98.80;;;;;;5090576;28;20039;-87
2022/03/21 10:40:41;;;;;;;2.60;2.00;;;16.50;99.00;;;;;;5092061;28;20032;-85
2022/03/21 10:43:11;;;;;;;3.42;2.28;;;16.30;98.50;;;;;;5082088;28;20020;-84
2022/03/21 10:45:41;;;;;;;2.30;1.77;;;16.50;98.50;;;;;;5091548;28;20016;-83
2022/03/21 10:48:26;;;;;;;5.95;2.63;;;16.20;98.60;;;;;;5090703;28;20032;-84
2022/03/21 10:50:54;;;;;;;6.35;2.10;;;16.30;98.30;;;;;;5083644;28;20025;-83
2022/03/21 10:53:26;;;;;;;2.65;2.00;;;16.20;98.70;;;;;;5091831;28;20044;-88
2022/03/21 10:56:08;;;;;;;5.53;2.35;;;16.50;99.00;;;;;;5092938;28;20031;-84
2022/03/21 10:58:38;;;;;;;4.93;2.47;;;16.40;98.40;;;;;;5091030;28;20581;-83
2022/03/21 11:01:17;;;;;;;4.53;2.10;;;15.90;99.40;;;;;;5091275;28;20024;-83
2022/03/21 11:03:46;;;;;;;8.95;2.22;;;16.10;98.40;;;;;;5082938;28;20099;-85
2022/03/21 11:06:13;;;;;;;3.65;2.17;;;15.70;98.20;;;;;;5088935;28;20023;-83
2022/03/21 11:08:39;;;;;;;5.30;1.75;;;15.70;99.80;;;;;;5091703;28;20039;-84
2022/03/21 11:11:07;;;;;;;5.15;2.40;;;15.60;99.30;;;;;;5091354;28;20028;-85
2022/03/21 11:13:33;;;;;;;3.08;2.20;;;15.60;99.10;;;;;;5092559;28;20031;-84
2022/03/21 11:15:59;;;;;;;4.43;2.40;;;15.80;99.10;;;;;;5091321;28;20035;-87
2022/03/21 11:18:28;;;;;;;6.78;2.53;;;16.10;98.80;;;;;;5091075;28;20089;-84
2022/03/21 11:20:58;;;;;;;5.07;2.50;;;15.90;98.90;;;;;;5091194;28;20031;-83
2022/03/21 11:23:27;;;;;;;11.25;3.10;;;15.60;99.50;;;;;;5074180;28;20008;-83
2022/03/21 11:25:57;;;;;;;6.68;2.67;;;16.00;99.00;;;;;;5092645;28;20031;-84
2022/03/21 11:28:42;;;;;;;5.43;2.75;;;15.90;99.40;;;;;;5090553;28;20036;-84
2022/03/21 11:31:16;;;;;;;10.50;3.40;;;15.90;99.00;;;;;;5090853;28;20074;-83
2022/03/21 11:33:51;;;;;;;6.63;2.60;;;15.70;98.90;;;;;;5091052;28;20024;-83
2022/03/21 11:36:17;;;;;;;4.32;3.15;;;15.50;99.20;;;;;;5090495;28;20030;-83
2022/03/21 11:38:45;;;;;;;8.55;3.30;;;15.90;99.20;;;;;;5091119;28;20047;-84
2022/03/21 11:41:21;;;;;;;9.57;3.22;;;15.60;99.10;;;;;;5089625;28;20028;-83
2022/03/21 11:44:08;;;;;;;6.25;2.63;;;16.00;98.40;;;;;;5076950;28;20024;-84
2022/03/21 11:46:35;;;;;;;5.85;2.58;;;16.30;98.30;;;;;;5090602;28;20101;-84
2022/03/21 11:49:28;;;;;;;3.92;2.35;;;16.00;98.40;;;;;;5090109;28;20020;-84
2022/03/21 11:52:00;;;;;;;4.72;2.38;;;16.10;98.30;;;;;;5081395;28;20040;-84
2022/03/21 11:54:39;;;;;;;7.20;3.20;;;15.80;98.30;;;;;;5089216;28;20052;-83
2022/03/21 11:57:17;;;;;;;6.05;3.17;;;15.70;98.40;;;;;;5081068;28;20089;-83
2022/03/21 11:59:43;;;;;;;6.55;2.97;;;15.90;98.60;;;;;;5089306;28;20026;-83
2022/03/21 12:02:10;;;;;;;6.20;3.25;;;16.00;98.20;;;;;;5090513;28;20040;-84
2022/03/21 12:04:37;;;;;;;8.65;3.05;;;16.10;99.00;;;;;;5090307;28;20028;-83
2022/03/21 12:07:12;;;;;;;6.13;2.95;;;16.00;97.80;;;;;;5087612;28;20050;-84
2022/03/21 12:09:46;;;;;;;7.47;2.83;;;15.60;98.30;;;;;;5090303;28;20048;-83
2022/03/21 12:12:13;;;;;;;5.95;3.22;;;15.90;98.30;;;;;;5090260;28;20024;-84
2022/03/21 12:14:45;;;;;;;6.47;3.33;;;16.00;98.00;;;;;;5089889;28;20034;-83
2022/03/21 12:17:11;;;;;;;7.20;3.25;;;16.30;99.00;;;;;;5088765;28;20032;-84
2022/03/21 12:19:54;;;;;;;6.90;3.25;;;15.90;97.60;;;;;;5091491;28;20023;-87
2022/03/21 12:22:34;;;;;;;6.10;3.40;;;16.20;98.80;;;;;;5089647;28;20040;-84
2022/03/21 12:25:25;;;;;;;9.30;3.87;;;15.60;97.80;;;;;;5081482;28;20016;-85
2022/03/21 12:27:53;;;;;;;5.47;3.17;;;15.70;98.70;;;;;;5089936;28;20031;-85
2022/03/21 12:30:27;;;;;;;8.60;3.42;;;16.10;98.10;;;;;;5088700;28;20072;-85
2022/03/21 12:32:58;;;;;;;9.07;3.40;;;15.80;97.20;;;;;;5090049;28;20017;-85
2022/03/21 12:35:40;;;;;;;9.63;3.70;;;15.70;97.80;;;;;;5074171;28;20028;-88
2022/03/21 12:38:05;;;;;;;;;;;16.10;97.80;;;;;;5090498;28;20047;-84
2022/03/21 12:40:37;;;;;;;5.68;3.60;;;15.70;96.90;;;;;;5090783;28;20365;-84
2022/03/21 12:43:04;;;;;;;7.03;3.90;;;15.60;97.30;;;;;;5089759;28;20016;-86
2022/03/21 12:45:30;;;;;;;9.60;3.28;;;15.80;97.30;;;;;;5088297;28;20020;-84
2022/03/21 12:48:03;;;;;;;7.05;4.15;;;15.90;96.70;;;;;;5089950;28;20028;-84
2022/03/21 12:50:28;;;;;;;10.75;4.15;;;15.60;96.80;;;;;;5076560;28;20074;-84
2022/03/21 12:52:56;;;;;;;6.53;3.70;;;15.70;97.10;;;;;;5087113;28;20126;-85
2022/03/21 12:55:23;;;;;;;10.45;3.75;;;15.70;96.30;;;;;;5085380;28;20040;-84
2022/03/21 12:57:56;;;;;;;12.10;4.97;;;15.80;96.80;;;;;;5087939;28;20032;-83
2022/03/21 13:00:26;;;;;;;10.32;3.95;;;15.90;96.20;;;;;;5080716;28;20095;-85
2022/03/21 13:02:55;;;;;;;11.13;4.03;;;15.40;95.70;;;;;;5089669;28;20107;-88
2022/03/21 13:10:55;;;;;;;13.05;4.50;;;14.90;95.10;;;;;;5091002;28;20459;-85
2022/03/21 13:13:22;;;;;;;10.05;3.70;;;15.10;95.40;;;;;;5089855;28;20042;-84
2022/03/21 13:16:03;;;;;;;6.95;3.95;;;15.10;94.20;;;;;;5089271;28;20494;-84
2022/03/21 13:18:39;;;;;;;11.23;3.10;;;15.10;94.00;;;;;;5089414;28;20568;-84
2022/03/21 13:21:06;;;;;;;11.05;3.47;;;15.00;93.80;;;;;;5089427;28;20024;-84
2022/03/21 13:23:35;;;;;;;5.97;3.72;;;15.10;94.00;;;;;;5088241;28;20016;-84